createdAt,value
2023-01-09T00:01:48.120Z,4.95
2023-01-09T00:04:16.275Z,4.96
2023-01-09T00:06:45.890Z,4.98
2023-01-09T00:09:13.461Z,5.01
2023-01-09T00:11:41.025Z,5.04
2023-01-09T00:14:10.909Z,5.07
2023-01-09T00:16:38.770Z,5.12
2023-01-09T00:19:06.364Z,5.15
2023-01-09T00:21:34.204Z,5.21
2023-01-09T00:24:02.015Z,5.27
2023-01-09T00:26:30.035Z,5.32
2023-01-09T00:28:58.535Z,5.38
2023-01-09T00:31:26.293Z,5.44
2023-01-09T00:34:05.297Z,5.51
2023-01-09T00:36:32.870Z,5.55
2023-01-09T00:39:00.395Z,5.57
2023-01-09T00:41:32.108Z,5.57
2023-01-09T00:44:12.705Z,5.55
2023-01-09T00:46:45.519Z,5.58
2023-01-09T00:49:14.837Z,5.59
2023-01-09T00:51:42.894Z,5.63
2023-01-09T00:54:14.473Z,5.65
2023-01-09T00:56:42.443Z,5.68
2023-01-09T00:59:10.206Z,5.68
2023-01-09T01:01:37.901Z,5.67
2023-01-09T01:04:25.464Z,5.68
2023-01-09T01:07:11.865Z,5.72
2023-01-09T01:09:39.449Z,5.78
2023-01-09T01:12:07.346Z,5.82
2023-01-09T01:14:37.057Z,5.85
2023-01-09T01:17:05.822Z,5.88
2023-01-09T01:19:35.385Z,5.90
2023-01-09T01:22:03.796Z,5.91
2023-01-09T01:24:31.539Z,5.91
2023-01-09T01:26:59.155Z,5.90
2023-01-09T01:29:27.379Z,5.90
2023-01-09T01:31:55.092Z,5.89
2023-01-09T01:34:22.717Z,5.85
2023-01-09T01:36:50.327Z,5.84
2023-01-09T01:39:17.848Z,5.83
2023-01-09T01:41:45.508Z,5.83
2023-01-09T01:44:50.336Z,5.83
2023-01-09T01:47:20.385Z,5.83
2023-01-09T01:49:48.571Z,5.78
2023-01-09T01:52:19.457Z,5.77
2023-01-09T01:54:48.172Z,5.79
2023-01-09T01:57:15.763Z,5.79
2023-01-09T01:59:51.300Z,5.77
2023-01-09T02:02:22.586Z,5.79
2023-01-09T02:04:53.664Z,5.79
2023-01-09T02:07:21.234Z,5.78
2023-01-09T02:09:49.201Z,5.78
2023-01-09T02:12:25.105Z,5.80
2023-01-09T02:15:06.907Z,5.83
2023-01-09T02:17:43.451Z,5.86
2023-01-09T02:20:45.399Z,5.88
2023-01-09T02:23:50.692Z,5.88
2023-01-09T02:26:54.770Z,5.91
2023-01-09T02:29:44.172Z,5.93
2023-01-09T02:32:20.677Z,5.96
2023-01-09T02:35:04.424Z,5.95
2023-01-09T02:37:51.813Z,5.96
2023-01-09T02:40:31.313Z,5.99
2023-01-09T02:43:00.557Z,6.01
2023-01-09T02:45:28.173Z,6.03
2023-01-09T02:47:55.833Z,6.02
2023-01-09T02:50:39.730Z,6.03
2023-01-09T02:53:26.076Z,6.05
2023-01-09T02:56:20.311Z,6.03
2023-01-09T02:58:59.987Z,6.03
2023-01-09T03:01:34.514Z,6.01
2023-01-09T03:04:19.212Z,6.01
2023-01-09T03:06:58.665Z,5.98
2023-01-09T03:09:29.537Z,5.98
2023-01-09T03:12:04.375Z,5.94
2023-01-09T03:14:34.039Z,5.92
2023-01-09T03:17:06.316Z,5.90
2023-01-09T03:19:35.357Z,5.88
2023-01-09T03:22:03.622Z,5.85
2023-01-09T03:24:31.354Z,5.82
2023-01-09T03:26:58.963Z,5.78
2023-01-09T03:29:27.848Z,5.72
2023-01-09T03:31:57.582Z,5.69
2023-01-09T03:34:25.705Z,5.65
2023-01-09T03:36:53.211Z,5.61
2023-01-09T03:39:20.680Z,5.57
2023-01-09T03:41:48.232Z,5.56
2023-01-09T03:44:15.796Z,5.55
2023-01-09T03:46:43.433Z,5.51
2023-01-09T03:49:11.017Z,5.49
2023-01-09T03:51:38.564Z,5.47
2023-01-09T03:54:06.041Z,5.46
2023-01-09T03:56:33.657Z,5.45
2023-01-09T03:59:01.235Z,5.41
2023-01-09T04:01:28.910Z,5.39
2023-01-09T04:03:56.575Z,5.38
2023-01-09T04:06:24.322Z,5.40
2023-01-09T04:08:52.003Z,5.42
2023-01-09T04:11:22.432Z,5.44
2023-01-09T04:13:50.044Z,5.48
2023-01-09T04:16:17.568Z,5.51
2023-01-09T04:18:45.189Z,5.55
2023-01-09T04:21:12.708Z,5.60
2023-01-09T04:23:40.353Z,5.65
2023-01-09T04:26:08.136Z,5.63
2023-01-09T04:28:35.753Z,5.60
2023-01-09T04:31:03.462Z,5.57
2023-01-09T04:33:31.267Z,5.54
2023-01-09T04:35:59.031Z,5.50
2023-01-09T04:38:27.563Z,5.45
2023-01-09T04:40:55.453Z,5.45
2023-01-09T04:43:22.992Z,5.42
2023-01-09T04:45:50.523Z,5.41
2023-01-09T04:48:18.116Z,5.41
2023-01-09T04:50:45.663Z,5.41
2023-01-09T04:53:13.215Z,5.43
2023-01-09T04:55:41.557Z,5.43
2023-01-09T04:58:09.358Z,5.41
2023-01-09T05:00:36.846Z,5.38
2023-01-09T05:03:04.406Z,5.33
2023-01-09T05:05:31.895Z,5.29
2023-01-09T05:07:59.496Z,5.25
2023-01-09T05:10:27.002Z,5.20
2023-01-09T05:12:54.546Z,5.12
2023-01-09T05:15:22.237Z,5.04
2023-01-09T05:17:49.849Z,4.99
2023-01-09T05:20:17.508Z,4.96
2023-01-09T05:22:45.325Z,4.95
2023-01-09T05:25:12.899Z,4.93
2023-01-09T05:27:43.966Z,4.92
2023-01-09T05:30:13.695Z,4.89
2023-01-09T05:32:41.885Z,4.85
2023-01-09T05:35:09.664Z,4.79
2023-01-09T05:37:37.236Z,4.72
2023-01-09T05:40:05.217Z,4.68
2023-01-09T05:42:32.833Z,4.64
2023-01-09T05:45:00.878Z,4.59
2023-01-09T05:47:28.523Z,4.57
2023-01-09T05:49:58.784Z,4.54
2023-01-09T05:52:26.398Z,4.52
2023-01-09T05:54:53.933Z,4.54
2023-01-09T05:57:21.484Z,4.60
2023-01-09T05:59:48.987Z,4.64
2023-01-09T06:02:16.767Z,4.62
2023-01-09T06:04:44.621Z,4.61
2023-01-09T06:07:15.513Z,4.62
2023-01-09T06:09:46.160Z,4.64
2023-01-09T06:12:13.872Z,4.71
2023-01-09T06:14:41.396Z,4.76
2023-01-09T06:17:09.284Z,4.83
2023-01-09T06:19:36.887Z,4.90
2023-01-09T06:22:04.406Z,4.96
2023-01-09T06:24:31.901Z,5.00
2023-01-09T06:26:59.528Z,5.06
2023-01-09T06:29:27.159Z,5.14
2023-01-09T06:31:54.623Z,5.23
2023-01-09T06:34:22.243Z,5.28
2023-01-09T06:36:49.766Z,5.29
2023-01-09T06:39:17.395Z,5.27
2023-01-09T06:41:47.114Z,5.23
2023-01-09T06:44:16.055Z,5.18
2023-01-09T06:46:43.560Z,5.11
2023-01-09T06:49:11.598Z,5.08
2023-01-09T06:51:39.214Z,5.05
2023-01-09T06:54:06.742Z,5.03
2023-01-09T06:56:34.290Z,5.04
2023-01-09T06:59:02.116Z,5.02
2023-01-09T07:01:29.804Z,5.03
2023-01-09T07:03:57.591Z,5.02
2023-01-09T07:06:25.611Z,5.03
2023-01-09T07:08:53.340Z,5.05
2023-01-09T07:11:20.887Z,5.11
2023-01-09T07:13:48.456Z,5.14
2023-01-09T07:16:16.176Z,5.16
2023-01-09T07:18:44.035Z,5.14
2023-01-09T07:21:11.541Z,5.12
2023-01-09T07:23:39.089Z,5.11
2023-01-09T07:26:06.648Z,5.14
2023-01-09T07:28:34.263Z,5.15
2023-01-09T07:31:02.731Z,5.18
2023-01-09T07:33:30.712Z,5.21
2023-01-09T07:35:58.509Z,5.24
2023-01-09T07:38:26.415Z,5.22
2023-01-09T07:40:54.043Z,5.20
2023-01-09T07:43:21.602Z,5.15
2023-01-09T07:45:49.141Z,5.11
2023-01-09T07:48:16.825Z,5.13
2023-01-09T07:50:44.448Z,5.16
2023-01-09T07:53:12.111Z,5.26
2023-01-09T07:55:40.045Z,5.30
2023-01-09T07:58:07.641Z,5.31
2023-01-09T08:00:35.249Z,5.32
2023-01-09T08:03:03.030Z,5.36
2023-01-09T08:05:30.601Z,5.39
2023-01-09T08:07:58.495Z,5.37
2023-01-09T08:10:26.255Z,5.37
2023-01-09T08:12:53.904Z,5.37
2023-01-09T08:15:21.387Z,5.38
2023-01-09T08:17:49.002Z,5.37
2023-01-09T08:20:17.717Z,5.34
2023-01-09T08:22:50.610Z,5.28
2023-01-09T08:25:18.736Z,5.27
2023-01-09T08:27:47.114Z,5.24
2023-01-09T08:30:15.809Z,5.23
2023-01-09T08:32:43.617Z,5.20
2023-01-09T08:35:11.290Z,5.18
2023-01-09T08:37:38.913Z,5.18
2023-01-09T08:40:07.135Z,5.22
2023-01-09T08:42:53.250Z,5.26
2023-01-09T08:45:39.240Z,5.35
2023-01-09T08:48:07.626Z,5.43
2023-01-09T08:50:35.169Z,5.47
2023-01-09T08:53:02.931Z,5.51
2023-01-09T08:55:30.615Z,5.54
2023-01-09T08:57:58.278Z,5.55
2023-01-09T09:00:26.086Z,5.55
2023-01-09T09:02:55.716Z,5.53
2023-01-09T09:05:24.497Z,5.53
2023-01-09T09:07:56.263Z,5.54
2023-01-09T09:10:26.324Z,5.55
2023-01-09T09:12:55.902Z,5.56
2023-01-09T09:15:25.190Z,5.54
2023-01-09T09:17:54.529Z,5.52
2023-01-09T09:20:24.111Z,5.52
2023-01-09T09:22:51.994Z,5.56
2023-01-09T09:25:19.666Z,5.59
2023-01-09T09:27:47.834Z,5.58
2023-01-09T09:30:18.552Z,5.56
2023-01-09T09:32:47.007Z,5.53
2023-01-09T09:35:14.857Z,5.55
2023-01-09T09:37:42.436Z,5.55
2023-01-09T09:40:20.267Z,5.55
2023-01-09T09:43:34.271Z,5.60
2023-01-09T09:46:20.791Z,5.71
2023-01-09T09:48:54.694Z,5.85
2023-01-09T09:51:22.309Z,5.94
2023-01-09T09:53:55.899Z,6.04
2023-01-09T09:56:24.332Z,6.11
2023-01-09T09:59:15.100Z,6.14
2023-01-09T10:01:55.428Z,6.15
2023-01-09T10:04:25.963Z,6.18
2023-01-09T10:07:00.131Z,6.24
2023-01-09T10:09:46.897Z,6.33
2023-01-09T10:12:39.141Z,6.44
2023-01-09T10:15:18.325Z,6.51
2023-01-09T10:18:18.265Z,6.57
2023-01-09T10:21:16.638Z,6.62
2023-01-09T10:24:12.539Z,6.66
2023-01-09T10:26:45.515Z,6.66
2023-01-09T10:29:36.576Z,6.68
2023-01-09T10:32:07.065Z,6.76
2023-01-09T10:34:50.439Z,6.77
2023-01-09T10:37:40.536Z,6.77
2023-01-09T10:40:25.365Z,6.68
2023-01-09T10:42:59.314Z,6.58
2023-01-09T10:45:31.521Z,6.50
2023-01-09T10:48:11.578Z,6.46
2023-01-09T10:50:45.979Z,6.50
2023-01-09T10:53:28.681Z,6.52
2023-01-09T10:56:14.295Z,7.11
2023-01-09T10:58:41.957Z,7.55
2023-01-09T11:01:09.850Z,8.15
2023-01-09T11:03:39.115Z,8.49
2023-01-09T11:06:21.946Z,8.52
2023-01-09T11:08:53.621Z,8.63
2023-01-09T11:11:44.525Z,9.59
2023-01-09T11:14:33.241Z,10.60
2023-01-09T11:17:04.034Z,11.33
2023-01-09T11:19:33.663Z,12.00
2023-01-09T11:22:09.539Z,12.48
2023-01-09T11:24:37.250Z,12.80
2023-01-09T11:27:13.941Z,13.11
2023-01-09T11:29:42.174Z,13.40
2023-01-09T11:32:23.256Z,13.59
2023-01-09T11:34:51.092Z,13.72
2023-01-09T11:37:26.237Z,13.78
2023-01-09T11:39:55.663Z,13.86
2023-01-09T11:42:44.905Z,13.89
2023-01-09T11:45:24.323Z,13.16
2023-01-09T11:47:51.879Z,12.22
2023-01-09T11:50:29.424Z,11.23
2023-01-09T11:53:17.790Z,10.34
2023-01-09T11:55:47.393Z,9.68
2023-01-09T11:58:17.816Z,9.13
2023-01-09T12:01:25.911Z,8.62
2023-01-09T12:04:11.152Z,8.22
2023-01-09T12:06:45.119Z,7.85
2023-01-09T12:09:28.941Z,7.46
2023-01-09T12:12:09.881Z,7.11
2023-01-09T12:14:45.402Z,6.88
2023-01-09T12:17:50.280Z,6.70
2023-01-09T12:21:05.792Z,6.55
2023-01-09T12:23:45.423Z,6.46
2023-01-09T12:26:15.873Z,6.32
2023-01-09T12:29:07.688Z,6.23
2023-01-09T12:31:47.461Z,6.16
2023-01-09T12:34:30.916Z,6.11
2023-01-09T12:37:26.217Z,6.14
2023-01-09T12:40:15.261Z,6.33
2023-01-09T12:43:33.090Z,6.69
2023-01-09T12:46:13.986Z,6.93
2023-01-09T12:49:22.344Z,7.08
2023-01-09T12:51:56.142Z,7.17
2023-01-09T12:54:42.442Z,7.13
2023-01-09T12:57:19.157Z,7.03
2023-01-09T13:00:07.705Z,6.95
2023-01-09T13:02:44.400Z,6.84
2023-01-09T13:11:23.216Z,6.60
2023-01-09T13:14:17.721Z,6.55
2023-01-09T13:16:50.138Z,6.49
2023-01-09T13:19:49.997Z,6.44
2023-01-09T13:22:18.314Z,6.43
2023-01-09T13:25:03.332Z,6.43
2023-01-09T13:27:39.082Z,6.44
2023-01-09T13:30:20.124Z,6.46
2023-01-09T13:33:04.710Z,6.45
2023-01-09T13:35:32.522Z,6.42
2023-01-09T13:38:00.386Z,6.40
2023-01-09T13:40:30.345Z,6.40
2023-01-09T13:42:59.009Z,6.41
2023-01-09T13:45:29.634Z,6.45
2023-01-09T13:48:18.035Z,6.49
2023-01-09T13:50:47.554Z,6.57
2023-01-09T13:53:18.147Z,6.66
2023-01-09T13:55:58.016Z,6.72
2023-01-09T13:58:32.088Z,6.89
2023-01-09T14:01:02.227Z,7.21
2023-01-09T14:03:36.666Z,7.18
2023-01-09T14:06:12.097Z,7.07
2023-01-09T14:08:42.112Z,6.95
2023-01-09T14:11:18.436Z,6.86
2023-01-09T14:13:47.039Z,6.77
2023-01-09T14:16:20.708Z,6.73
2023-01-09T14:18:50.650Z,6.70
2023-01-09T14:21:19.079Z,6.68
2023-01-09T14:24:07.207Z,6.70
2023-01-09T14:26:50.738Z,6.71
2023-01-09T14:29:31.413Z,6.75
2023-01-09T14:32:23.659Z,6.83
2023-01-09T14:35:03.532Z,6.87
2023-01-09T14:37:38.408Z,6.90
2023-01-09T14:40:08.468Z,6.93
2023-01-09T14:42:40.900Z,6.96
2023-01-09T14:45:19.463Z,6.99
2023-01-09T14:47:53.490Z,7.03
2023-01-09T14:50:38.069Z,7.07
2023-01-09T14:53:12.322Z,7.09
2023-01-09T14:55:57.795Z,7.08
2023-01-09T14:58:35.063Z,7.09
2023-01-09T15:01:04.769Z,7.09
2023-01-09T15:03:38.675Z,7.08
2023-01-09T15:06:12.259Z,7.09
2023-01-09T15:08:39.948Z,7.09
2023-01-09T15:11:11.960Z,7.08
2023-01-09T15:13:49.127Z,7.09
2023-01-09T15:16:22.885Z,7.07
2023-01-09T15:18:54.590Z,7.03
2023-01-09T15:21:24.688Z,7.02
2023-01-09T15:23:53.010Z,7.04
2023-01-09T15:26:27.103Z,7.07
2023-01-09T15:29:02.063Z,7.06
2023-01-09T15:31:29.858Z,7.03
2023-01-09T15:33:57.620Z,6.99
2023-01-09T15:36:28.678Z,6.95
2023-01-09T15:38:58.995Z,6.88
2023-01-09T15:41:47.886Z,6.83
2023-01-09T15:44:18.700Z,6.84
2023-01-09T15:46:52.474Z,6.84
2023-01-09T15:49:20.634Z,6.85
2023-01-09T15:51:49.374Z,6.84
2023-01-09T15:54:23.530Z,6.82
2023-01-09T15:56:51.122Z,6.78
2023-01-09T15:59:27.850Z,6.76
2023-01-09T16:02:24.578Z,6.77
2023-01-09T16:04:54.813Z,6.81
2023-01-09T16:07:22.559Z,6.81
2023-01-09T16:09:52.854Z,6.81
2023-01-09T16:12:27.399Z,6.82
2023-01-09T16:14:58.093Z,6.84
2023-01-09T16:17:27.271Z,6.87
2023-01-09T16:20:14.631Z,6.91
2023-01-09T16:22:55.888Z,6.89
2023-01-09T16:25:34.366Z,6.90
2023-01-09T16:28:23.598Z,6.83
2023-01-09T16:31:03.356Z,6.77
2023-01-09T16:33:31.910Z,6.71
2023-01-09T16:35:59.709Z,6.66
2023-01-09T16:38:27.676Z,6.62
2023-01-09T16:41:26.217Z,6.55
2023-01-09T16:43:54.125Z,6.49
2023-01-09T16:46:22.487Z,6.46
2023-01-09T16:48:50.624Z,6.42
2023-01-09T16:51:21.857Z,6.37
2023-01-09T16:53:50.612Z,6.30
2023-01-09T16:56:22.765Z,6.26
2023-01-09T16:58:52.806Z,6.21
2023-01-09T17:01:22.442Z,6.19
2023-01-09T17:03:50.727Z,6.16
2023-01-09T17:06:30.441Z,6.11
2023-01-09T17:08:58.751Z,6.09
2023-01-09T17:11:31.778Z,6.07
2023-01-09T17:14:02.533Z,6.07
2023-01-09T17:16:30.699Z,6.09
2023-01-09T17:18:58.572Z,6.14
2023-01-09T17:21:31.107Z,6.21
2023-01-09T17:24:18.521Z,6.31
2023-01-09T17:27:09.439Z,6.38
2023-01-09T17:29:37.659Z,6.35
2023-01-09T17:32:05.510Z,6.31
2023-01-09T17:34:34.806Z,6.35
2023-01-09T17:37:04.396Z,6.39
2023-01-09T17:39:32.635Z,6.46
2023-01-09T17:42:02.013Z,6.43
2023-01-09T17:44:29.752Z,6.37
2023-01-09T17:46:57.601Z,6.31
2023-01-09T17:49:27.090Z,6.23
2023-01-09T17:51:54.787Z,6.20
2023-01-09T17:54:22.460Z,6.19
2023-01-09T17:56:51.244Z,6.16
2023-01-09T17:59:19.108Z,6.12
2023-01-09T18:01:47.131Z,6.06
2023-01-09T18:04:14.823Z,6.05
2023-01-09T18:06:42.819Z,6.04
2023-01-09T18:09:15.691Z,6.03
2023-01-09T18:11:44.933Z,6.04
2023-01-09T18:14:13.834Z,6.07
2023-01-09T18:16:41.734Z,6.05
2023-01-09T18:19:09.556Z,6.05
2023-01-09T18:21:37.105Z,6.08
2023-01-09T18:24:05.322Z,6.15
2023-01-09T18:26:32.876Z,6.21
2023-01-09T18:29:00.959Z,6.27
2023-01-09T18:31:29.965Z,6.33
2023-01-09T18:34:02.093Z,6.35
2023-01-09T18:36:30.554Z,6.33
2023-01-09T18:39:01.667Z,6.29
2023-01-09T18:41:30.369Z,6.23
2023-01-09T18:44:00.515Z,6.15
2023-01-09T18:47:01.314Z,6.05
2023-01-09T18:49:33.872Z,5.98
2023-01-09T18:52:01.653Z,5.91
2023-01-09T18:54:29.285Z,5.83
2023-01-09T18:56:56.891Z,5.78
2023-01-09T18:59:24.518Z,5.75
2023-01-09T19:01:52.174Z,5.69
2023-01-09T19:04:19.863Z,5.65
2023-01-09T19:06:47.533Z,5.63
2023-01-09T19:09:15.169Z,5.61
2023-01-09T19:11:45.994Z,5.61
2023-01-09T19:14:13.588Z,5.59
2023-01-09T19:16:41.264Z,5.56
2023-01-09T19:19:11.152Z,5.56
2023-01-09T19:21:38.796Z,5.57
2023-01-09T19:24:06.908Z,5.56
2023-01-09T19:26:34.636Z,5.57
2023-01-09T19:29:02.348Z,5.58
2023-01-09T19:31:30.278Z,5.60
2023-01-09T19:33:58.826Z,5.64
2023-01-09T19:36:27.537Z,5.66
2023-01-09T19:39:02.664Z,5.68
2023-01-09T19:41:31.115Z,5.72
2023-01-09T19:44:02.395Z,5.78
2023-01-09T19:46:33.558Z,5.85
2023-01-09T19:49:04.761Z,5.97
2023-01-09T19:51:33.738Z,6.04
2023-01-09T19:56:30.863Z,6.02
2023-01-09T19:59:01.066Z,5.95
2023-01-09T20:01:39.135Z,5.88
2023-01-09T20:04:13.609Z,5.81
2023-01-09T20:06:44.006Z,5.77
2023-01-09T20:09:14.044Z,5.77
2023-01-09T20:11:41.805Z,5.79
2023-01-09T20:14:16.736Z,5.80
2023-01-09T20:16:44.981Z,5.79
2023-01-09T20:19:13.274Z,5.79
2023-01-09T20:21:42.831Z,5.77
2023-01-09T20:24:14.571Z,5.78
2023-01-09T20:26:42.361Z,5.80
2023-01-09T20:29:10.077Z,5.84
2023-01-09T20:31:37.840Z,5.88
2023-01-09T20:34:05.508Z,5.93
2023-01-09T20:36:34.903Z,6.01
2023-01-09T20:39:05.573Z,6.11
2023-01-09T20:41:33.815Z,6.20
2023-01-09T20:44:04.997Z,6.28
2023-01-09T20:46:38.891Z,6.36
2023-01-09T20:49:08.623Z,6.39
2023-01-09T20:51:40.403Z,6.37
2023-01-09T20:54:08.067Z,6.30
2023-01-09T20:56:40.228Z,6.20
2023-01-09T20:59:13.087Z,6.11
2023-01-09T21:01:46.198Z,6.02
2023-01-09T21:04:14.036Z,5.94
2023-01-09T21:06:42.720Z,5.83
2023-01-09T21:09:10.465Z,5.76
2023-01-09T21:11:38.152Z,5.69
2023-01-09T21:14:05.808Z,5.65
2023-01-09T21:16:33.420Z,5.65
2023-01-09T21:19:01.073Z,5.69
2023-01-09T21:21:29.463Z,5.70
2023-01-09T21:23:59.176Z,5.71
2023-01-09T21:26:30.449Z,5.69
2023-01-09T21:29:00.027Z,5.66
2023-01-09T21:31:36.600Z,5.62
2023-01-09T21:34:06.905Z,5.56
2023-01-09T21:36:36.150Z,5.50
2023-01-09T21:39:07.893Z,5.42
2023-01-09T21:41:56.875Z,5.35
2023-01-09T21:44:43.020Z,5.29
2023-01-09T21:47:10.964Z,5.25
2023-01-09T21:49:43.434Z,5.23
2023-01-09T21:52:14.516Z,5.20
2023-01-09T21:54:42.340Z,5.18
2023-01-09T21:57:10.760Z,5.14
2023-01-09T21:59:43.194Z,5.09
2023-01-09T22:02:14.618Z,5.06
2023-01-09T22:04:43.158Z,5.04
2023-01-09T22:07:10.701Z,5.08
2023-01-09T22:09:38.325Z,5.12
2023-01-09T22:12:06.095Z,5.19
2023-01-09T22:14:33.758Z,5.24
2023-01-09T22:17:01.373Z,5.28
2023-01-09T22:19:28.973Z,5.34
2023-01-09T22:21:56.554Z,5.38
2023-01-09T22:24:24.223Z,5.44
2023-01-09T22:26:51.858Z,5.48
2023-01-09T22:29:19.531Z,5.51
2023-01-09T22:31:47.944Z,5.58
2023-01-09T22:34:17.359Z,5.62
2023-01-09T22:36:46.721Z,5.63
2023-01-09T22:39:16.640Z,5.66
2023-01-09T22:41:44.847Z,5.64
2023-01-09T22:44:12.997Z,5.66
2023-01-09T22:46:40.707Z,5.66
2023-01-09T22:49:09.156Z,5.68
2023-01-09T22:51:36.745Z,5.69
2023-01-09T22:54:04.526Z,5.74
2023-01-09T22:56:34.938Z,5.81
2023-01-09T22:59:02.545Z,5.90
2023-01-09T23:01:30.150Z,5.98
2023-01-09T23:03:57.819Z,6.05
2023-01-09T23:06:25.628Z,6.11
2023-01-09T23:08:55.772Z,6.16
2023-01-09T23:11:48.282Z,6.20
2023-01-09T23:14:17.172Z,6.21
2023-01-09T23:16:44.842Z,6.20
2023-01-09T23:19:15.756Z,6.19
2023-01-09T23:21:44.791Z,6.18
2023-01-09T23:24:15.543Z,6.13
2023-01-09T23:26:44.139Z,6.04
2023-01-09T23:29:12.770Z,5.95
2023-01-09T23:31:40.554Z,5.90
2023-01-09T23:34:08.510Z,5.91
2023-01-09T23:36:36.245Z,5.94
2023-01-09T23:39:08.853Z,5.97
2023-01-09T23:41:55.844Z,5.99
2023-01-09T23:44:23.745Z,6.01
2023-01-09T23:46:51.661Z,5.99
2023-01-09T23:49:19.571Z,5.96
2023-01-09T23:51:47.475Z,5.95
2023-01-09T23:54:16.367Z,5.94
2023-01-09T23:56:44.008Z,5.92
2023-01-09T23:59:13.483Z,5.91
